Time;durP1;ratioP1;P1;durP2;ratioP2;P2;SDS_P1;SDS_P2;PMS_P1;PMS_P2;Temp;Humidity;BMP_temperature;BMP_pressure;BME280_temperature;BME280_humidity;BME280_pressure;Samples;Min_cycle;Max_cycle;Signal;HPM_P1;HPM_P2
2021/07/01 00:00:48;;;;;;;5.93;4.32;;;;;;;17.06;nan;99996.44;5071391;28;20051;-82
2021/07/01 00:03:15;;;;;;;5.78;4.10;;;;;;;16.97;nan;99998.78;5071856;28;20039;-80
2021/07/01 00:05:43;;;;;;;5.22;3.80;;;;;;;17.04;nan;99992.16;5069615;28;20277;-80
2021/07/01 00:08:10;;;;;;;4.97;3.60;;;;;;;17.03;nan;99990.44;5082223;28;20044;-80
2021/07/01 00:10:37;;;;;;;6.65;3.40;;;;;;;17.02;nan;99992.25;5084944;28;20040;-81
2021/07/01 00:13:04;;;;;;;4.20;3.47;;;;;;;17.00;nan;99977.28;5045744;28;20104;-80
2021/07/01 00:15:32;;;;;;;4.20;3.10;;;;;;;17.00;nan;99975.47;5075664;28;20040;-79
2021/07/01 00:18:01;;;;;;;4.75;3.40;;;;;;;16.99;nan;99980.91;5083385;28;20036;-79
2021/07/01 00:20:27;;;;;;;5.28;3.47;;;;;;;16.91;nan;99988.50;5081901;28;20037;-79
2021/07/01 00:22:54;;;;;;;5.15;3.08;;;;;;;16.91;nan;99992.00;5066492;28;20046;-79
2021/07/01 00:25:21;;;;;;;3.85;3.28;;;;;;;16.79;nan;99996.22;5064395;28;20062;-80
2021/07/01 00:27:48;;;;;;;3.65;3.03;;;;;;;16.82;nan;100000.53;5091368;28;20036;-79
2021/07/01 00:30:17;;;;;;;3.78;2.90;;;;;;;16.85;nan;99989.69;5088721;28;20124;-79
2021/07/01 00:32:45;;;;;;;4.97;2.88;;;;;;;16.88;nan;99994.84;5059759;28;20226;-80
2021/07/01 00:35:12;;;;;;;3.30;2.85;;;;;;;16.84;nan;99995.97;5070197;28;20286;-80
2021/07/01 00:37:39;;;;;;;4.10;2.85;;;;;;;16.83;nan;99991.59;5073063;28;20502;-82
2021/07/01 00:40:08;;;;;;;3.28;2.70;;;;;;;16.87;nan;99985.97;5068328;28;20044;-80
2021/07/01 00:42:36;;;;;;;3.60;2.60;;;;;;;16.84;nan;99991.50;5069318;28;20051;-79
2021/07/01 00:45:04;;;;;;;3.65;2.88;;;;;;;16.85;nan;99985.22;5083825;28;20050;-81
2021/07/01 00:47:32;;;;;;;2.85;2.28;;;;;;;16.83;nan;99980.91;5077322;28;20044;-80
2021/07/01 00:49:59;;;;;;;3.83;2.88;;;;;;;16.78;nan;99975.84;5070059;28;20498;-81
2021/07/01 00:52:26;;;;;;;3.30;2.88;;;;;;;16.75;nan;99973.34;5046987;28;20037;-81
2021/07/01 00:54:53;;;;;;;4.13;3.00;;;;;;;16.77;nan;99984.78;5078501;28;20125;-80
2021/07/01 00:57:19;;;;;;;3.13;2.45;;;;;;;16.67;nan;99983.56;5083601;28;20110;-80
2021/07/01 00:59:46;;;;;;;4.65;3.35;;;;;;;16.68;nan;99981.75;5061646;28;20527;-82
2021/07/01 01:02:13;;;;;;;3.90;2.83;;;;;;;16.68;nan;99982.59;5092539;28;20514;-81
2021/07/01 01:04:40;;;;;;;5.28;2.88;;;;;;;16.66;nan;99978.31;5072629;28;20079;-80
2021/07/01 01:07:07;;;;;;;5.60;2.78;;;;;;;16.64;nan;99965.03;5048037;28;20558;-80
2021/07/01 01:09:33;;;;;;;3.70;2.75;;;;;;;16.64;nan;99965.03;5061125;28;21669;-80
2021/07/01 01:12:00;;;;;;;4.10;3.20;;;;;;;16.63;nan;99971.31;5080387;28;20170;-82
2021/07/01 01:14:27;;;;;;;4.32;3.05;;;;;;;16.68;nan;99968.41;5079139;28;20036;-80
2021/07/01 01:16:54;;;;;;;3.05;2.38;;;;;;;16.60;nan;99959.03;5068298;28;20044;-80
2021/07/01 01:19:20;;;;;;;3.75;2.65;;;;;;;16.59;nan;99957.31;5081778;28;20040;-80
2021/07/01 01:21:48;;;;;;;3.10;2.38;;;;;;;16.53;nan;99962.13;5063304;28;20040;-82
2021/07/01 01:24:15;;;;;;;4.30;2.40;;;;;;;16.44;nan;99965.31;5071846;28;20061;-80
2021/07/01 01:26:42;;;;;;;2.63;2.00;;;;;;;16.50;nan;99967.66;5067001;28;20044;-80
2021/07/01 01:29:09;;;;;;;3.65;2.70;;;;;;;16.53;nan;99964.78;5061987;28;20047;-79
2021/07/01 01:31:37;;;;;;;3.05;2.28;;;;;;;16.50;nan;99957.84;5094251;28;20035;-80
2021/07/01 01:34:05;;;;;;;2.42;1.95;;;;;;;16.45;nan;99951.88;5094306;28;20036;-80
2021/07/01 01:36:32;;;;;;;2.63;2.10;;;;;;;16.53;nan;99941.66;5063849;28;20044;-82
2021/07/01 01:38:59;;;;;;;2.58;2.22;;;;;;;16.49;nan;99940.13;5066525;28;20062;-80
2021/07/01 01:41:26;;;;;;;2.70;1.88;;;;;;;16.44;nan;99947.50;5091923;28;20081;-80
2021/07/01 01:43:53;;;;;;;3.00;1.83;;;;;;;16.43;nan;99947.59;5061143;28;20055;-80
2021/07/01 01:46:20;;;;;;;2.53;2.08;;;;;;;16.48;nan;99957.06;5087403;28;20036;-81
2021/07/01 01:48:53;;;;;;;2.55;1.50;;;;;;;16.46;nan;99955.41;5064517;28;20067;-80
2021/07/01 01:51:20;;;;;;;3.80;1.60;;;;;;;16.43;nan;99948.47;5050915;28;20037;-82
2021/07/01 01:53:47;;;;;;;2.22;1.58;;;;;;;16.45;nan;99951.03;5091250;28;20051;-80
2021/07/01 01:56:18;;;;;;;2.90;1.83;;;;;;;16.39;nan;99946.88;5093332;28;20078;-80
2021/07/01 01:58:46;;;;;;;1.73;1.35;;;;;;;16.42;nan;99935.22;5096477;28;20067;-80
2021/07/01 02:01:12;;;;;;;2.05;1.73;;;;;;;16.36;nan;99932.88;5072976;28;20042;-80
2021/07/01 02:03:39;;;;;;;2.92;1.55;;;;;;;16.40;nan;99931.78;5083375;28;20118;-81
2021/07/01 02:06:06;;;;;;;2.03;1.27;;;;;;;16.37;nan;99927.47;5080126;28;20060;-80
2021/07/01 02:08:33;;;;;;;1.60;1.30;;;;;;;16.37;nan;99932.78;5071061;28;20458;-80
2021/07/01 02:11:01;;;;;;;1.92;1.30;;;;;;;16.38;nan;99931.84;5087630;28;20085;-80
2021/07/01 02:13:28;;;;;;;2.20;1.50;;;;;;;16.35;nan;99936.50;5098421;28;20032;-80
2021/07/01 02:15:55;;;;;;;1.52;1.10;;;;;;;16.34;nan;99940.97;5092351;28;20383;-80
2021/07/01 02:18:21;;;;;;;1.65;1.40;;;;;;;16.33;nan;99939.25;5068934;28;20047;-79
2021/07/01 02:20:48;;;;;;;1.55;1.13;;;;;;;16.28;nan;99936.84;5086334;28;20409;-79
2021/07/01 02:23:15;;;;;;;2.45;1.20;;;;;;;16.26;nan;99938.72;5083853;28;20033;-80
2021/07/01 02:25:41;;;;;;;1.52;1.15;;;;;;;16.24;nan;99943.28;5083125;28;20044;-81
2021/07/01 02:28:08;;;;;;;2.47;1.17;;;;;;;16.28;nan;99947.50;5069610;28;20096;-81
2021/07/01 02:30:35;;;;;;;1.58;1.23;;;;;;;16.30;nan;99944.75;5077328;28;20050;-80
2021/07/01 02:33:04;;;;;;;2.92;1.27;;;;;;;16.30;nan;99939.41;5061628;28;20059;-79
2021/07/01 02:35:32;;;;;;;1.45;1.08;;;;;;;16.29;nan;99935.88;5045169;28;20044;-80
2021/07/01 02:37:59;;;;;;;1.10;0.90;;;;;;;16.27;nan;99931.59;5059484;28;20174;-80
2021/07/01 02:40:26;;;;;;;2.22;1.02;;;;;;;16.25;nan;99933.50;5086073;28;20040;-81
2021/07/01 02:42:53;;;;;;;1.17;0.82;;;;;;;16.19;nan;99934.69;5083836;28;20036;-80
2021/07/01 02:45:20;;;;;;;1.88;1.00;;;;;;;16.21;nan;99946.09;5087401;28;20032;-80
2021/07/01 02:47:46;;;;;;;1.50;0.90;;;;;;;16.08;nan;99939.75;5072753;28;20042;-80
2021/07/01 02:50:13;;;;;;;1.10;0.75;;;;;;;16.19;nan;99942.69;5075380;28;20037;-79
2021/07/01 02:52:40;;;;;;;1.40;0.82;;;;;;;16.18;nan;99946.28;5048755;28;20500;-80
2021/07/01 02:55:08;;;;;;;1.20;0.70;;;;;;;16.18;nan;99934.78;5065093;28;20036;-80
2021/07/01 02:57:36;;;;;;;0.65;0.63;;;;;;;16.17;nan;99939.25;5046849;28;20494;-80
2021/07/01 03:00:06;;;;;;;0.80;0.70;;;;;;;16.15;nan;99942.94;5072253;28;20451;-80
2021/07/01 03:02:33;;;;;;;1.35;1.00;;;;;;;16.12;nan;99949.28;5075468;28;20040;-81
2021/07/01 03:05:00;;;;;;;1.13;1.00;;;;;;;16.10;nan;99947.66;5073912;28;20040;-80
2021/07/01 03:07:26;;;;;;;1.17;0.85;;;;;;;16.11;nan;99947.56;5070235;28;20072;-80
2021/07/01 03:09:53;;;;;;;1.35;0.85;;;;;;;16.13;nan;99951.00;5079592;28;20039;-80
2021/07/01 03:12:20;;;;;;;0.98;0.85;;;;;;;16.05;nan;99942.56;5074714;28;20037;-80
2021/07/01 03:14:46;;;;;;;1.23;0.85;;;;;;;16.11;nan;99936.03;5070592;28;20072;-80
2021/07/01 03:17:13;;;;;;;1.48;1.00;;;;;;;16.10;nan;99929.84;5080395;28;20036;-79
2021/07/01 03:19:40;;;;;;;1.35;0.88;;;;;;;16.11;nan;99928.91;5066375;28;20040;-80
2021/07/01 03:22:07;;;;;;;2.10;1.25;;;;;;;16.04;nan;99920.38;5057717;28;20032;-81
2021/07/01 03:24:33;;;;;;;1.15;0.80;;;;;;;16.05;nan;99924.75;5083823;28;20052;-80
2021/07/01 03:27:00;;;;;;;1.67;0.80;;;;;;;16.02;nan;99935.59;5045456;28;20043;-80
2021/07/01 03:29:27;;;;;;;1.15;1.00;;;;;;;16.05;nan;99938.09;5081905;28;20044;-80
2021/07/01 03:31:54;;;;;;;0.88;0.88;;;;;;;16.06;nan;99936.31;5077693;28;20036;-80
2021/07/01 03:34:21;;;;;;;1.10;0.70;;;;;;;16.01;nan;99933.03;5073174;28;20029;-79
2021/07/01 03:36:48;;;;;;;1.15;0.75;;;;;;;15.99;nan;99917.13;5079037;28;20101;-79
2021/07/01 03:39:15;;;;;;;0.80;0.77;;;;;;;15.96;nan;99927.06;5071418;28;20497;-79
2021/07/01 03:41:42;;;;;;;0.75;0.63;;;;;;;15.97;nan;99912.81;5075234;28;20033;-78
2021/07/01 03:44:11;;;;;;;1.08;0.65;;;;;;;15.91;nan;99922.00;5066016;28;20043;-79
2021/07/01 03:46:38;;;;;;;1.17;1.00;;;;;;;15.90;nan;99930.09;5087178;28;20064;-80
2021/07/01 03:49:05;;;;;;;1.25;0.90;;;;;;;15.90;nan;99919.44;5064285;28;20036;-81
2021/07/01 03:51:31;;;;;;;0.95;0.80;;;;;;;15.84;nan;99915.28;5074431;28;20060;-80
2021/07/01 03:53:58;;;;;;;1.60;0.70;;;;;;;15.84;nan;99912.63;5102963;27;20612;-80
2021/07/01 03:56:25;;;;;;;2.75;1.15;;;;;;;15.84;nan;99922.44;5061705;28;20382;-79
2021/07/01 03:58:52;;;;;;;1.33;0.90;;;;;;;15.84;nan;99931.28;5071497;28;20036;-80
2021/07/01 04:01:18;;;;;;;0.98;0.82;;;;;;;15.86;nan;99936.50;5078609;28;22184;-79
2021/07/01 04:03:45;;;;;;;1.00;0.80;;;;;;;15.73;nan;99937.19;5077618;28;20074;-80
2021/07/01 04:06:12;;;;;;;0.85;0.80;;;;;;;15.77;nan;99952.03;5080604;28;20123;-80
2021/07/01 04:08:38;;;;;;;1.02;0.82;;;;;;;15.73;nan;99955.81;5088244;28;20140;-79
2021/07/01 04:11:09;;;;;;;1.48;0.82;;;;;;;15.73;nan;99954.97;5059636;28;20062;-80
2021/07/01 04:13:36;;;;;;;1.20;0.85;;;;;;;15.75;nan;99951.28;5076381;28;20049;-81
2021/07/01 04:16:03;;;;;;;1.15;1.00;;;;;;;15.73;nan;99942.50;5070670;28;20047;-80
2021/07/01 04:18:29;;;;;;;1.05;0.95;;;;;;;15.71;nan;99944.38;5085796;28;20032;-78
2021/07/01 04:20:56;;;;;;;1.08;0.98;;;;;;;15.72;nan;99947.88;5051298;28;20040;-80
2021/07/01 04:23:23;;;;;;;1.35;0.95;;;;;;;15.65;nan;99954.50;5087860;28;20032;-80
2021/07/01 04:25:51;;;;;;;1.60;0.90;;;;;;;15.68;nan;99957.00;5088869;28;20413;-80
2021/07/01 04:28:18;;;;;;;2.45;1.10;;;;;;;15.64;nan;99966.97;5063136;28;20127;-80
2021/07/01 04:30:45;;;;;;;1.05;0.70;;;;;;;15.70;nan;99974.59;5080140;28;20393;-80
2021/07/01 04:33:12;;;;;;;1.30;1.10;;;;;;;15.67;nan;99968.59;5076057;28;20036;-81
2021/07/01 04:35:39;;;;;;;1.27;0.88;;;;;;;15.67;nan;99972.13;5051966;28;20108;-82
2021/07/01 04:38:08;;;;;;;0.98;0.73;;;;;;;15.67;nan;99973.91;5072203;28;20036;-80
2021/07/01 04:40:35;;;;;;;2.83;0.90;;;;;;;15.66;nan;99973.06;5072535;28;20043;-82
2021/07/01 04:43:03;;;;;;;1.25;0.82;;;;;;;15.60;nan;99981.31;5092247;28;20046;-82
2021/07/01 04:45:29;;;;;;;1.40;0.95;;;;;;;15.60;nan;99977.81;5073139;28;20271;-81
2021/07/01 04:47:57;;;;;;;0.90;0.80;;;;;;;15.61;nan;99982.22;5058301;28;20049;-83
2021/07/01 04:50:24;;;;;;;0.90;0.73;;;;;;;15.62;nan;99975.94;5088095;28;20054;-80
2021/07/01 04:52:51;;;;;;;1.55;0.90;;;;;;;15.67;nan;99976.59;5090528;28;20084;-80
2021/07/01 04:55:18;;;;;;;0.80;0.80;;;;;;;15.51;nan;99971.16;5080877;28;20093;-81
2021/07/01 04:57:44;;;;;;;1.45;1.20;;;;;;;15.56;nan;99966.47;5069661;28;20126;-81
2021/07/01 05:00:11;;;;;;;2.55;1.05;;;;;;;15.58;nan;99955.72;5073295;28;20037;-81
2021/07/01 05:02:38;;;;;;;1.08;0.90;;;;;;;15.60;nan;99952.03;5062278;28;20090;-80
2021/07/01 05:05:05;;;;;;;1.20;1.10;;;;;;;15.64;nan;99945.66;5060433;28;20044;-80
2021/07/01 05:07:32;;;;;;;1.35;1.10;;;;;;;15.59;nan;99960.97;5055686;28;20051;-81
2021/07/01 05:09:59;;;;;;;1.20;1.08;;;;;;;15.54;nan;99955.00;5072870;28;20036;-80
2021/07/01 05:12:26;;;;;;;1.67;1.17;;;;;;;15.54;nan;99960.34;5079026;28;20619;-83
2021/07/01 05:14:52;;;;;;;2.40;1.63;;;;;;;15.61;nan;99964.44;5052838;28;20055;-79
2021/07/01 05:17:19;;;;;;;2.20;1.10;;;;;;;15.60;nan;99962.69;5084630;28;20044;-81
2021/07/01 05:19:46;;;;;;;1.33;0.93;;;;;;;15.59;nan;99957.44;5071541;28;20040;-79
2021/07/01 05:22:13;;;;;;;1.30;1.00;;;;;;;15.62;nan;99960.84;5088540;28;20405;-80
2021/07/01 05:24:39;;;;;;;1.27;1.02;;;;;;;15.69;nan;99961.38;5061773;28;20430;-81
2021/07/01 05:27:06;;;;;;;2.15;1.10;;;;;;;15.71;nan;99972.81;5054929;28;20047;-81
2021/07/01 05:29:33;;;;;;;1.67;1.20;;;;;;;15.75;nan;99969.06;5069705;28;20029;-80
2021/07/01 05:32:19;;;;;;;1.60;1.30;;;;;;;15.68;nan;99973.84;5062153;28;20067;-80
2021/07/01 05:34:46;;;;;;;1.75;1.35;;;;;;;15.72;nan;99982.50;5068320;28;20048;-79
2021/07/01 05:37:13;;;;;;;3.13;1.10;;;;;;;15.59;nan;99978.75;5068414;28;20049;-81
2021/07/01 05:39:40;;;;;;;2.28;1.20;;;;;;;15.76;nan;99973.44;5073530;28;20044;-80
2021/07/01 05:42:07;;;;;;;1.33;1.23;;;;;;;15.77;nan;99969.81;5069259;28;20086;-80
2021/07/01 05:44:34;;;;;;;1.50;1.15;;;;;;;15.74;nan;99975.31;5059571;28;20044;-81
2021/07/01 05:47:01;;;;;;;2.85;1.50;;;;;;;15.65;nan;99974.00;5072017;28;20046;-79
2021/07/01 05:49:28;;;;;;;1.48;1.38;;;;;;;15.65;nan;99983.81;5079336;28;20040;-81
2021/07/01 05:51:59;;;;;;;2.10;1.60;;;;;;;15.69;nan;99986.22;5057143;28;20801;-81
2021/07/01 05:54:30;;;;;;;3.47;1.80;;;;;;;15.72;nan;99982.50;5085006;28;20067;-81
2021/07/01 05:56:56;;;;;;;2.20;1.83;;;;;;;15.70;nan;99982.59;5068437;28;20078;-81
2021/07/01 05:59:24;;;;;;;3.38;2.08;;;;;;;15.73;nan;99981.59;5058866;28;20106;-81
2021/07/01 06:01:51;;;;;;;2.38;1.67;;;;;;;15.70;nan;99985.25;5057545;28;20036;-82
2021/07/01 06:04:18;;;;;;;2.45;1.60;;;;;;;15.75;nan;99990.34;5064316;28;20125;-82
2021/07/01 06:06:48;;;;;;;2.05;1.60;;;;;;;15.75;nan;99985.91;5061358;28;20044;-83
2021/07/01 06:09:16;;;;;;;1.88;1.52;;;;;;;15.70;nan;99987.94;5082188;28;20041;-82
2021/07/01 06:11:43;;;;;;;2.63;1.55;;;;;;;15.70;nan;99990.59;5090343;28;20051;-82
2021/07/01 06:14:10;;;;;;;2.20;1.52;;;;;;;15.69;nan;99996.84;5066242;28;20390;-82
2021/07/01 06:16:37;;;;;;;1.88;1.45;;;;;;;15.70;nan;99998.56;5070210;28;20100;-81
2021/07/01 06:19:04;;;;;;;2.35;1.48;;;;;;;15.68;nan;99997.81;5071648;28;20036;-83
2021/07/01 06:21:32;;;;;;;2.53;1.90;;;;;;;15.64;nan;100006.03;5089561;28;20476;-83
2021/07/01 06:23:59;;;;;;;2.55;1.63;;;;;;;15.62;nan;100003.44;5091331;28;20038;-81
2021/07/01 06:26:28;;;;;;;2.10;1.58;;;;;;;15.65;nan;100000.63;5070154;28;20070;-81
2021/07/01 06:28:56;;;;;;;2.67;1.90;;;;;;;15.67;nan;100004.06;5082802;28;20062;-81
2021/07/01 06:31:23;;;;;;;1.95;1.60;;;;;;;15.74;nan;100004.63;5050489;28;20063;-84
2021/07/01 06:33:50;;;;;;;2.53;1.65;;;;;;;15.79;nan;100005.22;5075795;28;20032;-83
2021/07/01 06:36:21;;;;;;;2.42;2.00;;;;;;;15.82;nan;100004.22;5075604;28;20051;-82
2021/07/01 06:38:58;;;;;;;2.47;1.83;;;;;;;15.84;nan;100005.00;5063812;28;20052;-85
2021/07/01 06:41:30;;;;;;;3.58;1.83;;;;;;;15.87;nan;100010.16;5055116;28;20511;-81
2021/07/01 06:44:01;;;;;;;2.65;1.95;;;;;;;15.86;nan;100003.09;5060864;28;20064;-83
2021/07/01 06:46:31;;;;;;;2.20;1.70;;;;;;;15.87;nan;99999.50;5056513;28;20045;-84
2021/07/01 06:48:59;;;;;;;2.63;1.70;;;;;;;15.86;nan;100003.97;5055713;28;20036;-82
2021/07/01 06:51:26;;;;;;;3.28;2.00;;;;;;;15.90;nan;100002.88;5049038;28;20055;-82
2021/07/01 06:53:54;;;;;;;2.47;1.90;;;;;;;15.86;nan;100006.63;5066266;28;20043;-83
2021/07/01 06:56:22;;;;;;;3.22;2.10;;;;;;;15.95;nan;100015.94;5055304;28;20045;-82
2021/07/01 06:58:49;;;;;;;2.60;1.77;;;;;;;15.91;nan;100015.25;5058559;28;20040;-83
2021/07/01 07:01:18;;;;;;;2.20;1.80;;;;;;;15.85;nan;100015.56;5051413;28;20032;-82
2021/07/01 07:03:45;;;;;;;2.67;1.65;;;;;;;15.91;nan;100023.25;5073041;28;20036;-83
2021/07/01 07:06:11;;;;;;;2.08;1.60;;;;;;;15.86;nan;100024.41;5063470;28;20036;-82
2021/07/01 07:08:39;;;;;;;8.38;6.18;;;;;;;15.92;nan;100018.78;5051486;28;20078;-83
2021/07/01 07:11:07;;;;;;;40.13;27.77;;;;;;;15.89;nan;100018.91;5065530;28;20070;-82
2021/07/01 07:13:34;;;;;;;5.60;5.00;;;;;;;15.94;nan;100019.53;5053443;28;20044;-82
2021/07/01 07:16:03;;;;;;;4.20;3.80;;;;;;;15.89;nan;100027.81;5056968;28;20397;-83
2021/07/01 07:18:36;;;;;;;8.27;7.57;;;;;;;15.94;nan;100030.19;5072043;28;20409;-83
2021/07/01 07:21:14;;;;;;;10.60;9.45;;;;;;;15.98;nan;100023.78;5071088;28;20123;-81
2021/07/01 07:23:45;;;;;;;19.70;17.52;;;;;;;15.96;nan;100030.97;5071681;28;20549;-83
2021/07/01 07:26:19;;;;;;;30.80;28.70;;;;;;;15.89;nan;100040.22;5072467;28;20032;-82
2021/07/01 07:28:54;;;;;;;9.65;8.77;;;;;;;15.85;nan;100038.69;5078611;28;20032;-83
2021/07/01 07:31:31;;;;;;;4.35;3.95;;;;;;;15.85;nan;100041.34;5071296;28;20048;-82
2021/07/01 07:34:04;;;;;;;3.65;3.33;;;;;;;15.75;nan;100044.47;5067569;28;20033;-82
2021/07/01 07:36:33;;;;;;;4.27;3.10;;;;;;;15.67;nan;100041.34;5060139;28;20041;-83
2021/07/01 07:39:02;;;;;;;3.97;3.03;;;;;;;15.65;nan;100040.59;5057210;28;20355;-80
2021/07/01 07:41:29;;;;;;;3.88;2.70;;;;;;;15.66;nan;100044.97;5073541;28;20113;-81
2021/07/01 07:43:56;;;;;;;3.80;3.35;;;;;;;15.64;nan;100038.84;5075621;28;20032;-82
2021/07/01 07:46:25;;;;;;;5.57;3.17;;;;;;;15.68;nan;100043.06;5089380;28;20042;-82
2021/07/01 07:48:52;;;;;;;5.28;3.65;;;;;;;15.65;nan;100051.22;5063888;28;20045;-82
2021/07/01 07:51:23;;;;;;;3.72;2.55;;;;;;;15.70;nan;100049.16;5055948;28;20044;-81
2021/07/01 07:53:53;;;;;;;4.68;3.15;;;;;;;15.70;nan;100054.50;5054557;28;20028;-79
2021/07/01 07:56:26;;;;;;;9.98;9.05;;;;;;;15.72;nan;100065.06;5082601;28;20067;-80
2021/07/01 07:58:55;;;;;;;4.22;3.47;;;;;;;15.74;nan;100063.22;5077662;28;20403;-82
2021/07/01 08:01:22;;;;;;;3.83;3.42;;;;;;;15.64;nan;100061.97;5073664;28;20570;-81
2021/07/01 08:03:52;;;;;;;3.80;3.22;;;;;;;15.70;nan;100062.50;5077027;28;20032;-83
2021/07/01 08:06:21;;;;;;;4.65;4.13;;;;;;;15.58;nan;100063.09;5070391;28;20051;-81
2021/07/01 08:08:48;;;;;;;3.40;2.83;;;;;;;15.68;nan;100064.38;5089637;28;20040;-80
2021/07/01 08:11:15;;;;;;;4.85;2.95;;;;;;;15.69;nan;100068.75;5059327;28;20052;-84
2021/07/01 08:13:42;;;;;;;3.90;3.25;;;;;;;15.74;nan;100072.06;5077783;28;20070;-84
2021/07/01 08:16:09;;;;;;;4.93;4.43;;;;;;;15.68;nan;100068.84;5067070;28;20039;-84
2021/07/01 08:18:39;;;;;;;4.22;3.58;;;;;;;15.69;nan;100070.56;5054527;28;20518;-83
2021/07/01 08:21:13;;;;;;;5.40;4.45;;;;;;;15.69;nan;100081.22;5056570;28;20135;-84
2021/07/01 08:23:44;;;;;;;4.50;2.85;;;;;;;15.60;nan;100073.66;5072892;28;20051;-83
2021/07/01 08:26:13;;;;;;;4.60;3.05;;;;;;;15.63;nan;100069.06;5069123;28;20397;-81
2021/07/01 08:28:40;;;;;;;3.67;2.80;;;;;;;15.64;nan;100075.28;5073997;28;20055;-82
2021/07/01 08:31:11;;;;;;;3.33;2.38;;;;;;;15.61;nan;100076.28;5081335;28;20041;-82
2021/07/01 08:33:44;;;;;;;5.45;3.20;;;;;;;15.61;nan;100073.63;5064904;28;20126;-83
2021/07/01 08:36:16;;;;;;;3.45;2.60;;;;;;;15.59;nan;100075.47;5067621;28;20046;-83
2021/07/01 08:38:43;;;;;;;4.63;2.97;;;;;;;15.54;nan;100069.50;5068686;28;20101;-84
2021/07/01 08:41:19;;;;;;;3.50;2.72;;;;;;;15.54;nan;100072.16;5067349;28;20032;-84
2021/07/01 08:43:55;;;;;;;3.65;2.30;;;;;;;15.55;nan;100071.22;5053040;28;20047;-83
2021/07/01 08:46:29;;;;;;;3.75;2.95;;;;;;;15.60;nan;100074.53;5052674;28;20708;-82
2021/07/01 08:49:00;;;;;;;4.00;2.38;;;;;;;15.57;nan;100077.34;5046368;28;20033;-83
2021/07/01 08:51:30;;;;;;;3.03;2.40;;;;;;;15.65;nan;100093.84;5082009;28;20130;-82
2021/07/01 08:54:18;;;;;;;3.50;2.70;;;;;;;15.63;nan;100081.50;5074135;28;20123;-81
2021/07/01 08:56:45;;;;;;;4.85;2.80;;;;;;;15.50;nan;100097.22;5055219;28;20113;-81
2021/07/01 08:59:13;;;;;;;3.22;2.80;;;;;;;15.55;nan;100094.31;5044307;28;20051;-83
2021/07/01 09:01:41;;;;;;;3.45;2.65;;;;;;;15.52;nan;100098.00;5088634;28;20044;-82
2021/07/01 09:04:11;;;;;;;3.95;3.17;;;;;;;15.53;nan;100101.53;5054694;28;20028;-82
2021/07/01 09:06:39;;;;;;;3.70;3.05;;;;;;;15.48;nan;100104.44;5073555;28;20044;-82
2021/07/01 09:09:09;;;;;;;2.97;2.47;;;;;;;15.44;nan;100113.50;5053532;28;20131;-83
2021/07/01 09:11:38;;;;;;;4.00;2.70;;;;;;;15.36;nan;100118.31;5067095;28;20044;-81
2021/07/01 09:14:08;;;;;;;3.28;2.95;;;;;;;15.41;nan;100119.84;5077390;28;20637;-82
2021/07/01 09:16:36;;;;;;;3.70;2.65;;;;;;;15.42;nan;100116.25;5058943;28;20093;-85
2021/07/01 09:19:05;;;;;;;3.70;3.15;;;;;;;15.45;nan;100125.88;5073872;28;20040;-81
2021/07/01 09:21:33;;;;;;;3.70;2.55;;;;;;;15.40;nan;100138.56;5087458;28;20046;-83
2021/07/01 09:24:01;;;;;;;3.97;2.90;;;;;;;15.37;nan;100125.38;5074079;28;20044;-82
2021/07/01 09:26:28;;;;;;;3.40;2.78;;;;;;;15.36;nan;100142.28;5074472;28;20036;-81
2021/07/01 09:28:56;;;;;;;5.28;3.17;;;;;;;15.35;nan;100143.22;5096423;28;20062;-82
2021/07/01 09:31:25;;;;;;;3.47;2.30;;;;;;;15.28;nan;100147.13;5053494;28;20056;-83
2021/07/01 09:33:52;;;;;;;3.30;2.88;;;;;;;15.44;nan;100148.09;5089017;28;20032;-81
2021/07/01 09:36:24;;;;;;;3.60;2.63;;;;;;;15.44;nan;100146.28;5099900;28;20174;-83
2021/07/01 09:38:53;;;;;;;3.08;2.47;;;;;;;15.49;nan;100148.75;5066203;28;20044;-82
2021/07/01 09:41:23;;;;;;;4.85;2.22;;;;;;;15.49;nan;100152.28;5061027;28;20040;-82
2021/07/01 09:43:50;;;;;;;3.42;2.75;;;;;;;15.44;nan;100162.28;5054651;28;20049;-81
2021/07/01 09:46:23;;;;;;;3.15;2.50;;;;;;;15.43;nan;100159.69;5072764;28;20039;-82
2021/07/01 09:48:52;;;;;;;2.50;2.20;;;;;;;15.47;nan;100158.63;5093251;28;20044;-81
2021/07/01 09:51:20;;;;;;;3.55;2.55;;;;;;;15.43;nan;100157.03;5061386;28;20035;-80
2021/07/01 09:53:51;;;;;;;2.75;2.15;;;;;;;15.40;nan;100157.19;5057051;28;20059;-81
2021/07/01 09:56:36;;;;;;;3.10;2.30;;;;;;;15.44;nan;100158.75;5053666;28;20040;-81
2021/07/01 09:59:26;;;;;;;3.13;2.30;;;;;;;15.41;nan;100157.09;5064417;28;20052;-80
2021/07/01 10:01:53;;;;;;;2.45;2.25;;;;;;;15.40;nan;100157.19;5080822;28;20044;-81
2021/07/01 10:04:20;;;;;;;2.10;1.88;;;;;;;15.40;nan;100166.03;5086700;28;20036;-80
2021/07/01 10:07:03;;;;;;;1.90;1.70;;;;;;;15.36;nan;100172.44;5057257;28;20044;-82
2021/07/01 10:09:30;;;;;;;3.28;2.03;;;;;;;15.31;nan;100169.13;5059593;28;20040;-81
2021/07/01 10:11:58;;;;;;;2.10;1.77;;;;;;;15.28;nan;100163.06;5088293;28;20505;-81
2021/07/01 10:14:37;;;;;;;2.33;1.80;;;;;;;15.32;nan;100168.19;5057802;28;20451;-82
2021/07/01 10:17:12;;;;;;;2.15;1.70;;;;;;;15.33;nan;100175.25;5045959;28;20045;-82
2021/07/01 10:19:39;;;;;;;2.90;1.73;;;;;;;15.37;nan;100182.13;5068388;28;20496;-82
2021/07/01 10:22:07;;;;;;;2.03;1.60;;;;;;;15.43;nan;100181.84;5081392;28;20047;-83
2021/07/01 10:24:47;;;;;;;3.47;2.05;;;;;;;15.41;nan;100177.53;5088791;28;20040;-83
2021/07/01 10:27:29;;;;;;;2.58;1.95;;;;;;;15.48;nan;100184.31;5068195;28;20051;-82
2021/07/01 10:30:01;;;;;;;2.30;2.10;;;;;;;15.49;nan;100184.22;5069499;28;20040;-81
2021/07/01 10:32:39;;;;;;;3.28;2.58;;;;;;;15.52;nan;100195.66;5073971;28;20109;-81
2021/07/01 10:35:29;;;;;;;2.78;2.20;;;;;;;15.47;nan;100198.56;5085877;28;20042;-81
2021/07/01 10:38:08;;;;;;;3.25;2.80;;;;;;;15.52;nan;100201.84;5069473;28;20450;-81
2021/07/01 10:40:46;;;;;;;3.63;2.08;;;;;;;15.47;nan;100202.06;5068346;28;20131;-79
2021/07/01 10:43:15;;;;;;;2.10;1.90;;;;;;;15.46;nan;100204.78;5078899;28;20041;-80
2021/07/01 10:45:58;;;;;;;3.20;2.78;;;;;;;15.52;nan;100206.31;5087015;28;20079;-80
2021/07/01 10:48:26;;;;;;;2.33;2.13;;;;;;;15.55;nan;100217.66;5059483;28;20048;-79
2021/07/01 10:51:06;;;;;;;2.75;2.55;;;;;;;15.48;nan;100206.47;5054781;28;20045;-80
2021/07/01 10:53:39;;;;;;;3.42;2.20;;;;;;;15.47;nan;100214.53;5072037;28;20051;-83
2021/07/01 10:56:15;;;;;;;2.92;1.80;;;;;;;15.47;nan;100214.53;5085739;28;20071;-82
2021/07/01 10:58:43;;;;;;;2.30;2.10;;;;;;;15.43;nan;100211.13;5060154;28;20048;-82
2021/07/01 11:01:22;;;;;;;2.50;2.00;;;;;;;15.51;nan;100216.09;5060648;28;20079;-78
2021/07/01 11:04:09;;;;;;;2.25;2.05;;;;;;;15.48;nan;100218.91;5069008;28;20131;-80
2021/07/01 11:06:38;;;;;;;2.80;1.77;;;;;;;15.47;nan;100218.06;5063700;28;20117;-80
2021/07/01 11:09:06;;;;;;;2.22;2.03;;;;;;;15.52;nan;100225.78;5072884;28;20036;-80
2021/07/01 11:11:36;;;;;;;2.33;1.90;;;;;;;15.47;nan;100231.38;5052288;28;20079;-79
2021/07/01 11:14:09;;;;;;;2.28;1.88;;;;;;;15.53;nan;100226.66;5056770;28;20040;-80
2021/07/01 11:16:46;;;;;;;2.20;2.00;;;;;;;15.48;nan;100233.09;5089413;28;20052;-79
2021/07/01 11:19:14;;;;;;;3.90;2.90;;;;;;;15.40;nan;100224.59;5066544;28;20109;-80
2021/07/01 11:21:46;;;;;;;3.25;2.25;;;;;;;15.46;nan;100229.59;5058966;28;20044;-80
2021/07/01 11:24:24;;;;;;;10.77;9.77;;;;;;;15.48;nan;100234.88;5073975;28;20119;-79
2021/07/01 11:26:57;;;;;;;2.85;2.03;;;;;;;15.45;nan;100237.66;5057298;28;20044;-80
2021/07/01 11:29:44;;;;;;;3.30;3.00;;;;;;;15.46;nan;100245.56;5044399;28;20052;-80
2021/07/01 11:32:25;;;;;;;3.08;2.47;;;;;;;15.54;nan;100244.34;5068474;28;20052;-81
2021/07/01 11:34:53;;;;;;;2.42;2.22;;;;;;;15.55;nan;100238.94;5085757;28;20033;-82
2021/07/01 11:37:37;;;;;;;5.15;4.50;;;;;;;15.57;nan;100255.75;5047292;28;20051;-79
2021/07/01 11:40:19;;;;;;;6.65;6.05;;;;;;;15.56;nan;100259.34;5086196;28;20047;-83
2021/07/01 11:42:49;;;;;;;4.97;2.67;;;;;;;15.59;nan;100253.00;5074032;28;20055;-79
2021/07/01 11:45:17;;;;;;;1.90;1.70;;;;;;;15.60;nan;100260.91;5038241;28;20094;-80
2021/07/01 11:47:45;;;;;;;2.22;2.00;;;;;;;15.61;nan;100257.34;5053214;28;20076;-80
2021/07/01 11:50:12;;;;;;;2.00;1.83;;;;;;;15.40;nan;100269.84;5052401;28;20039;-79
2021/07/01 11:52:41;;;;;;;2.28;1.98;;;;;;;15.49;nan;100276.53;5069513;28;20052;-78
2021/07/01 11:55:10;;;;;;;2.42;2.20;;;;;;;15.54;nan;100271.84;5069911;28;20045;-81